createdAt,value
2019-05-29T00:00:48.831Z,7.87
2019-05-29T00:03:19.166Z,9.88
2019-05-29T00:05:49.422Z,11.18
2019-05-29T00:08:19.722Z,12.28
2019-05-29T00:10:51.074Z,7.08
2019-05-29T00:13:22.372Z,9.70
2019-05-29T00:15:52.630Z,10.20
2019-05-29T00:18:24.951Z,8.53
2019-05-29T00:20:55.265Z,8.03
2019-05-29T00:23:26.041Z,6.30
2019-05-29T00:25:56.468Z,9.08
2019-05-29T00:28:27.308Z,9.10
2019-05-29T00:30:57.616Z,13.35
2019-05-29T00:33:28.006Z,11.00
2019-05-29T00:35:58.303Z,9.80
2019-05-29T00:38:28.628Z,10.10
2019-05-29T00:40:59.979Z,11.15
2019-05-29T00:43:30.299Z,11.38
2019-05-29T00:46:01.917Z,7.65
2019-05-29T00:48:32.239Z,9.53
2019-05-29T00:51:02.517Z,9.18
2019-05-29T00:53:32.779Z,7.80
2019-05-29T00:56:03.481Z,7.20
2019-05-29T00:58:33.775Z,7.17
2019-05-29T01:01:04.148Z,9.95
2019-05-29T01:03:36.336Z,5.42
2019-05-29T01:06:06.428Z,9.30
2019-05-29T01:08:37.689Z,8.15
2019-05-29T01:11:07.948Z,10.93
2019-05-29T01:13:38.540Z,7.50
2019-05-29T01:16:08.844Z,8.43
2019-05-29T01:18:39.014Z,7.80
2019-05-29T01:21:09.312Z,9.53
2019-05-29T01:23:39.589Z,11.38
2019-05-29T01:26:12.429Z,8.48
2019-05-29T01:28:42.813Z,8.65
2019-05-29T01:31:13.621Z,5.55
2019-05-29T01:33:44.336Z,5.97
2019-05-29T01:36:15.711Z,6.60
2019-05-29T01:38:48.261Z,10.55
2019-05-29T01:43:47.845Z,9.45
2019-05-29T01:46:19.497Z,5.60
2019-05-29T01:48:50.088Z,7.62
2019-05-29T01:51:21.798Z,6.78
2019-05-29T01:53:52.249Z,12.15
2019-05-29T01:56:23.854Z,6.97
2019-05-29T01:58:54.348Z,4.65
2019-05-29T02:01:24.653Z,8.63
2019-05-29T02:03:54.983Z,6.12
2019-05-29T02:06:25.254Z,7.53
2019-05-29T02:08:56.597Z,7.53
2019-05-29T02:11:27.550Z,9.43
2019-05-29T02:13:58.014Z,7.92
2019-05-29T02:16:28.332Z,5.28
2019-05-29T02:18:58.955Z,6.35
2019-05-29T02:21:30.345Z,12.28
2019-05-29T02:24:00.534Z,6.30
2019-05-29T02:26:33.926Z,5.60
2019-05-29T02:32:46.391Z,4.60
2019-05-29T02:35:17.932Z,9.65
2019-05-29T02:37:49.373Z,6.80
2019-05-29T02:40:21.306Z,9.10
2019-05-29T02:42:51.600Z,7.83
2019-05-29T02:45:26.256Z,7.47
2019-05-29T02:47:56.300Z,7.00
2019-05-29T02:50:28.746Z,9.53
2019-05-29T02:52:58.470Z,7.80
2019-05-29T02:55:30.939Z,15.40
2019-05-29T02:58:01.404Z,13.60
2019-05-29T03:00:55.755Z,8.90
2019-05-29T03:03:29.534Z,10.25
2019-05-29T03:05:58.590Z,10.68
2019-05-29T03:11:33.821Z,8.23
2019-05-29T03:14:05.843Z,11.10
2019-05-29T03:16:36.129Z,19.87
2019-05-29T03:20:01.005Z,11.80
2019-05-29T03:22:33.154Z,9.40
2019-05-29T03:25:03.442Z,8.83
2019-05-29T03:31:20.185Z,8.00
2019-05-29T03:37:32.443Z,11.78
2019-05-29T03:43:49.884Z,11.90
2019-05-29T03:53:43.027Z,14.73
2019-05-29T03:59:50.538Z,10.82
2019-05-29T04:06:01.870Z,11.50
2019-05-29T04:15:56.919Z,16.12
2019-05-29T04:22:15.356Z,13.60
2019-05-29T04:28:34.901Z,9.65
2019-05-29T04:34:46.915Z,10.82
2019-05-29T04:38:19.639Z,6.67
2019-05-29T04:40:49.962Z,6.62
2019-05-29T04:43:19.773Z,11.70
2019-05-29T04:49:37.729Z,11.75
2019-05-29T04:52:22.251Z,9.98
2019-05-29T04:54:52.537Z,10.45
2019-05-29T04:57:22.797Z,9.35
2019-05-29T05:03:35.346Z,9.10
2019-05-29T05:09:55.948Z,10.15
2019-05-29T05:16:03.858Z,18.98
2019-05-29T05:18:34.095Z,10.95
2019-05-29T05:24:49.871Z,10.08
2019-05-29T05:31:06.509Z,11.38
2019-05-29T05:37:02.694Z,11.60
2019-05-29T05:39:33.028Z,11.05
2019-05-29T05:49:27.094Z,6.87
2019-05-29T05:55:34.056Z,7.50
2019-05-29T05:58:38.318Z,9.35
2019-05-29T06:01:08.628Z,6.65
2019-05-29T06:03:40.614Z,7.85
2019-05-29T06:09:53.135Z,6.05
2019-05-29T06:16:19.030Z,9.75
2019-05-29T06:18:49.216Z,8.38
2019-05-29T06:21:20.538Z,11.60
2019-05-29T06:23:50.808Z,5.35
2019-05-29T06:26:25.397Z,4.60
2019-05-29T06:28:55.664Z,10.43
2019-05-29T06:31:27.262Z,6.70
2019-05-29T06:33:57.787Z,10.60
2019-05-29T06:36:29.084Z,8.30
2019-05-29T06:38:59.357Z,11.70
2019-05-29T06:41:32.138Z,10.48
2019-05-29T06:44:02.450Z,6.80
2019-05-29T06:46:34.229Z,6.78
2019-05-29T06:49:05.075Z,2.10
2019-05-29T06:51:37.104Z,4.92
2019-05-29T06:54:07.466Z,5.03
2019-05-29T06:56:39.786Z,4.62
2019-05-29T07:01:39.547Z,17.57
2019-05-29T07:04:12.497Z,32.93
2019-05-29T07:06:44.811Z,24.67
2019-05-29T07:09:15.279Z,38.38
2019-05-29T07:11:45.581Z,21.10
2019-05-29T07:14:16.802Z,15.43
2019-05-29T07:16:55.513Z,16.42
2019-05-29T07:19:26.565Z,11.97
2019-05-29T07:21:52.674Z,8.50
2019-05-29T07:24:23.774Z,2.27
2019-05-29T07:26:53.998Z,8.45
2019-05-29T07:29:25.868Z,9.80
2019-05-29T07:31:56.159Z,13.83
2019-05-29T07:34:26.419Z,13.98
2019-05-29T07:36:56.647Z,10.45
2019-05-29T07:39:27.018Z,13.60
2019-05-29T07:41:57.551Z,7.00
2019-05-29T07:44:28.950Z,7.47
2019-05-29T07:47:00.841Z,12.25
2019-05-29T07:49:39.184Z,10.38
2019-05-29T07:52:03.707Z,9.20
2019-05-29T07:54:33.915Z,4.92
2019-05-29T07:57:04.100Z,8.28
2019-05-29T07:59:39.069Z,6.85
2019-05-29T08:02:09.572Z,6.95
2019-05-29T08:04:40.946Z,4.92
2019-05-29T08:07:11.346Z,5.03
2019-05-29T08:09:43.605Z,7.25
2019-05-29T08:14:44.162Z,6.42
2019-05-29T08:20:00.608Z,6.28
2019-05-29T08:22:33.366Z,3.75
2019-05-29T08:24:49.497Z,17.48
2019-05-29T08:27:20.551Z,6.30
2019-05-29T08:29:51.206Z,8.68
2019-05-29T08:32:22.533Z,3.90
2019-05-29T08:34:52.754Z,2.77
2019-05-29T08:37:23.003Z,4.05
2019-05-29T08:39:53.290Z,3.60
2019-05-29T08:42:24.721Z,3.53
2019-05-29T08:44:55.014Z,9.03
2019-05-29T08:47:25.314Z,10.08
2019-05-29T08:50:14.494Z,2.70
2019-05-29T08:52:27.459Z,4.67
2019-05-29T08:54:58.722Z,8.38
2019-05-29T08:57:29.002Z,5.70
2019-05-29T08:59:59.330Z,5.08
2019-05-29T09:02:29.605Z,10.35
2019-05-29T09:04:59.783Z,5.70
2019-05-29T09:07:30.095Z,3.58
2019-05-29T09:10:00.418Z,5.37
2019-05-29T09:12:30.738Z,16.55
2019-05-29T09:15:02.291Z,30.43
2019-05-29T09:17:34.587Z,9.88
2019-05-29T09:20:07.479Z,9.85
2019-05-29T09:22:37.781Z,2.98
2019-05-29T09:25:08.218Z,4.30
2019-05-29T09:27:38.540Z,4.35
2019-05-29T09:30:09.491Z,5.30
2019-05-29T09:32:50.335Z,2.12
2019-05-29T09:35:11.894Z,4.15
2019-05-29T09:37:42.215Z,6.03
2019-05-29T09:40:16.878Z,4.50
2019-05-29T09:42:49.382Z,9.05
2019-05-29T09:45:19.809Z,2.90
2019-05-29T09:47:49.992Z,3.42
2019-05-29T09:50:23.163Z,2.85
2019-05-29T09:55:23.402Z,5.25
2019-05-29T09:58:07.168Z,2.87
2019-05-29T10:00:37.454Z,4.30
2019-05-29T10:03:07.805Z,6.25
2019-05-29T10:05:38.160Z,2.10
2019-05-29T10:08:09.490Z,3.12
2019-05-29T10:10:39.715Z,1.90
2019-05-29T10:13:09.989Z,6.05
2019-05-29T10:15:40.283Z,5.70
2019-05-29T10:18:30.596Z,3.30
2019-05-29T10:20:47.829Z,5.10
2019-05-29T10:23:20.100Z,3.55
2019-05-29T10:26:04.596Z,3.02
2019-05-29T10:28:50.252Z,3.37
2019-05-29T10:31:07.859Z,2.47
2019-05-29T10:33:42.496Z,7.37
2019-05-29T10:36:12.898Z,3.72
2019-05-29T10:38:46.545Z,21.30
2019-05-29T10:41:17.878Z,6.97
2019-05-29T10:43:53.472Z,3.05
2019-05-29T10:46:23.762Z,2.60
2019-05-29T10:48:56.385Z,6.17
2019-05-29T10:51:30.845Z,7.80
2019-05-29T10:54:01.135Z,5.85
2019-05-29T10:56:34.644Z,8.85
2019-05-29T10:59:05.304Z,16.77
2019-05-29T11:01:45.017Z,9.20
2019-05-29T11:04:15.430Z,6.97
2019-05-29T11:06:48.046Z,2.47
2019-05-29T11:09:18.454Z,2.17
2019-05-29T11:11:55.227Z,4.42
2019-05-29T11:14:25.561Z,7.40
2019-05-29T11:17:03.895Z,9.28
2019-05-29T11:19:34.189Z,5.45
2019-05-29T11:22:24.788Z,4.35
2019-05-29T11:27:11.542Z,3.98
2019-05-29T11:29:41.722Z,5.42
2019-05-29T11:32:21.448Z,9.45
2019-05-29T11:34:53.854Z,6.15
2019-05-29T11:37:32.539Z,6.92
2019-05-29T11:40:03.375Z,4.53
2019-05-29T11:42:33.877Z,3.30
2019-05-29T11:45:09.432Z,2.85
2019-05-29T11:47:41.554Z,3.83
2019-05-29T11:50:19.342Z,5.60
2019-05-29T11:52:44.477Z,5.83
2019-05-29T11:55:15.154Z,7.70
2019-05-29T11:57:46.337Z,10.63
2019-05-29T12:00:22.759Z,12.47
2019-05-29T12:02:53.937Z,11.12
2019-05-29T12:05:25.202Z,5.80
2019-05-29T12:07:55.520Z,3.77
2019-05-29T12:10:25.901Z,10.48
2019-05-29T12:12:57.444Z,5.12
2019-05-29T12:15:28.895Z,9.70
2019-05-29T12:18:21.902Z,7.97
2019-05-29T12:20:34.281Z,4.70
2019-05-29T12:23:23.787Z,4.42
2019-05-29T12:25:36.487Z,6.75
2019-05-29T12:28:07.332Z,6.25
2019-05-29T12:30:55.272Z,15.03
2019-05-29T12:33:26.832Z,6.22
2019-05-29T12:35:57.169Z,6.03
2019-05-29T12:38:34.387Z,3.00
2019-05-29T12:41:04.403Z,4.12
2019-05-29T12:43:46.078Z,7.72
2019-05-29T12:46:16.343Z,3.75
2019-05-29T12:48:53.555Z,11.22
2019-05-29T12:51:26.947Z,7.33
2019-05-29T12:53:58.324Z,7.33
2019-05-29T12:56:31.006Z,10.20
2019-05-29T12:59:02.844Z,5.92
2019-05-29T13:01:54.410Z,5.22
2019-05-29T13:04:24.904Z,11.93
2019-05-29T13:07:02.562Z,4.33
2019-05-29T13:09:32.958Z,16.12
2019-05-29T13:12:07.472Z,7.87
2019-05-29T13:14:37.766Z,6.05
2019-05-29T13:17:21.339Z,2.47
2019-05-29T13:19:51.681Z,2.83
2019-05-29T13:22:29.137Z,1.87
2019-05-29T13:24:59.693Z,4.58
2019-05-29T13:28:26.818Z,4.28
2019-05-29T13:30:57.703Z,4.70
2019-05-29T13:33:34.957Z,4.92
2019-05-29T13:36:06.732Z,5.35
2019-05-29T13:38:44.176Z,4.87
2019-05-29T13:41:14.467Z,16.05
2019-05-29T13:43:44.822Z,8.48
2019-05-29T13:46:16.426Z,7.65
2019-05-29T13:48:46.639Z,4.12
2019-05-29T13:51:16.848Z,4.92
2019-05-29T13:54:01.937Z,4.37
2019-05-29T13:56:19.080Z,2.83
2019-05-29T13:58:49.291Z,6.67
2019-05-29T14:01:19.950Z,8.05
2019-05-29T14:04:08.877Z,5.70
2019-05-29T14:06:39.181Z,4.55
2019-05-29T14:09:13.097Z,3.98
2019-05-29T14:11:43.301Z,4.35
2019-05-29T14:14:15.307Z,2.70
2019-05-29T14:16:45.546Z,4.20
2019-05-29T14:19:15.882Z,2.08
2019-05-29T14:21:49.161Z,5.10
2019-05-29T14:24:29.345Z,3.85
2019-05-29T14:27:01.405Z,7.65
2019-05-29T14:29:31.814Z,3.75
2019-05-29T14:32:07.361Z,7.70
2019-05-29T14:34:37.845Z,5.45
2019-05-29T14:37:09.698Z,3.98
2019-05-29T14:39:45.886Z,4.00
2019-05-29T14:42:15.797Z,4.20
2019-05-29T14:44:56.875Z,5.22
2019-05-29T14:47:27.244Z,4.37
2019-05-29T14:50:00.035Z,3.72
2019-05-29T14:52:51.435Z,2.40
2019-05-29T14:55:32.585Z,6.10
2019-05-29T14:58:07.772Z,4.17
2019-05-29T15:00:43.320Z,3.92
2019-05-29T15:03:35.575Z,5.17
2019-05-29T15:06:14.004Z,5.50
2019-05-29T15:09:03.522Z,7.28
2019-05-29T15:14:44.646Z,6.75
2019-05-29T15:20:20.034Z,4.75
2019-05-29T15:22:50.302Z,6.58
2019-05-29T15:25:24.223Z,8.35
2019-05-29T15:27:53.570Z,6.80
2019-05-29T15:30:28.409Z,5.85
2019-05-29T15:32:58.684Z,6.45
2019-05-29T15:35:29.133Z,7.28
2019-05-29T15:37:59.464Z,2.83
2019-05-29T15:40:33.578Z,5.28
2019-05-29T15:43:03.820Z,12.95
2019-05-29T15:45:36.124Z,6.58
2019-05-29T15:48:17.601Z,10.48
2019-05-29T15:50:49.025Z,5.17
2019-05-29T15:53:40.771Z,8.10
2019-05-29T15:56:22.792Z,7.50
2019-05-29T15:58:43.066Z,6.85
2019-05-29T16:01:33.048Z,4.33
2019-05-29T16:04:03.392Z,9.93
2019-05-29T16:06:36.039Z,5.97
2019-05-29T16:09:08.272Z,6.37
2019-05-29T16:14:12.914Z,5.60
2019-05-29T16:16:47.307Z,7.75
2019-05-29T16:19:18.360Z,9.38
2019-05-29T16:22:28.681Z,10.60
2019-05-29T16:24:58.958Z,6.83
2019-05-29T16:27:31.030Z,6.42
2019-05-29T16:30:27.874Z,6.75
2019-05-29T16:32:58.499Z,4.97
2019-05-29T16:36:03.505Z,10.63
2019-05-29T16:38:33.703Z,7.55
2019-05-29T16:41:05.361Z,5.08
2019-05-29T16:43:35.551Z,5.03
2019-05-29T16:46:05.896Z,5.58
2019-05-29T16:48:39.798Z,7.53
2019-05-29T16:51:10.076Z,5.58
2019-05-29T16:53:45.199Z,5.75
2019-05-29T16:56:16.788Z,9.75
2019-05-29T16:58:47.196Z,5.33
2019-05-29T17:01:19.382Z,5.17
2019-05-29T17:03:49.674Z,4.45
2019-05-29T17:06:34.653Z,4.60
2019-05-29T17:09:08.625Z,6.25
2019-05-29T17:11:49.562Z,7.83
2019-05-29T17:14:20.831Z,9.70
2019-05-29T17:16:53.446Z,5.30
2019-05-29T17:19:25.049Z,4.70
2019-05-29T17:21:56.858Z,7.17
2019-05-29T17:24:27.178Z,6.17
2019-05-29T17:26:57.531Z,13.38
2019-05-29T17:29:27.846Z,6.22
2019-05-29T17:32:01.216Z,5.80
2019-05-29T17:34:31.624Z,8.88
2019-05-29T17:37:03.438Z,9.48
2019-05-29T17:39:33.699Z,12.37
2019-05-29T17:42:04.122Z,6.78
2019-05-29T17:44:34.394Z,7.58
2019-05-29T17:47:04.758Z,17.52
2019-05-29T17:49:35.025Z,6.65
2019-05-29T17:52:08.515Z,7.15
2019-05-29T17:54:38.921Z,9.65
2019-05-29T17:57:09.607Z,9.08
2019-05-29T17:59:44.073Z,12.33
2019-05-29T18:02:14.334Z,22.62
2019-05-29T18:04:55.030Z,12.05
2019-05-29T18:07:26.627Z,14.13
2019-05-29T18:09:57.496Z,11.73
2019-05-29T18:12:38.335Z,6.92
2019-05-29T18:15:10.044Z,9.55
2019-05-29T18:18:08.150Z,8.43
2019-05-29T18:20:38.382Z,14.28
2019-05-29T18:23:28.182Z,11.18
2019-05-29T18:25:59.075Z,13.38
2019-05-29T18:28:29.396Z,7.95
2019-05-29T18:31:00.727Z,7.37
2019-05-29T18:33:31.049Z,8.03
2019-05-29T18:36:01.354Z,16.93
2019-05-29T18:38:42.786Z,10.30
2019-05-29T18:41:14.542Z,19.62
2019-05-29T18:43:45.199Z,12.28
2019-05-29T18:47:09.854Z,17.10
2019-05-29T18:49:40.249Z,25.17
2019-05-29T18:52:10.569Z,20.52
2019-05-29T18:58:24.257Z,11.88
2019-05-29T19:00:54.586Z,14.30
2019-05-29T19:03:25.368Z,9.98
2019-05-29T19:09:34.693Z,14.63
2019-05-29T19:12:08.184Z,20.50
2019-05-29T19:14:38.405Z,12.50
2019-05-29T19:17:43.880Z,14.47
2019-05-29T19:20:15.162Z,21.70
2019-05-29T19:22:45.447Z,18.90
2019-05-29T19:25:39.967Z,12.23
2019-05-29T19:28:10.594Z,17.48
2019-05-29T19:30:40.907Z,17.98
2019-05-29T19:33:20.216Z,12.23
2019-05-29T19:35:50.660Z,15.88
2019-05-29T19:38:20.909Z,15.60
2019-05-29T19:41:16.835Z,16.60
2019-05-29T19:43:47.629Z,16.95
2019-05-29T19:46:28.578Z,14.87
2019-05-29T19:48:58.879Z,19.60
2019-05-29T19:51:29.236Z,21.95
2019-05-29T19:54:00.570Z,17.57
2019-05-29T19:56:31.737Z,17.30
2019-05-29T19:59:02.135Z,19.55
2019-05-29T20:01:40.248Z,24.67
2019-05-29T20:04:07.703Z,22.13
2019-05-29T20:06:44.969Z,20.27
2019-05-29T20:09:15.617Z,18.27
2019-05-29T20:11:45.891Z,18.62
2019-05-29T20:14:38.188Z,7.25
2019-05-29T20:17:08.818Z,13.05
2019-05-29T20:20:19.469Z,12.40
2019-05-29T20:22:49.766Z,10.58
2019-05-29T20:25:20.415Z,18.30
2019-05-29T20:28:45.897Z,9.23
2019-05-29T20:31:16.198Z,8.75
2019-05-29T20:33:46.482Z,15.45
2019-05-29T20:36:19.997Z,13.50
2019-05-29T20:38:50.267Z,8.83
2019-05-29T20:41:20.628Z,14.47
2019-05-29T20:43:52.978Z,8.95
2019-05-29T20:49:22.362Z,9.63
2019-05-29T20:52:06.643Z,11.20
2019-05-29T20:54:37.683Z,7.58
2019-05-29T21:00:47.175Z,13.20
2019-05-29T21:07:17.334Z,13.10
2019-05-29T21:09:47.666Z,13.62
2019-05-29T21:12:18.247Z,12.03
2019-05-29T21:18:35.786Z,13.98
2019-05-29T22:10:59.514Z,9.45
2019-05-29T22:13:30.047Z,6.95
2019-05-29T22:16:00.945Z,8.75
2019-05-29T22:18:31.354Z,10.70
2019-05-29T22:21:01.666Z,10.15
2019-05-29T22:23:32.186Z,12.75
2019-05-29T22:26:02.517Z,11.35
2019-05-29T22:28:32.808Z,9.08
2019-05-29T22:31:04.177Z,17.77
2019-05-29T22:33:34.698Z,8.25
2019-05-29T22:36:05.292Z,15.48
2019-05-29T22:38:35.693Z,12.75
2019-05-29T22:41:05.900Z,10.35
2019-05-29T22:43:37.675Z,9.28
2019-05-29T22:46:08.315Z,12.43
2019-05-29T22:48:38.633Z,10.70
2019-05-29T22:51:08.975Z,9.70
2019-05-29T22:53:39.186Z,10.72
2019-05-29T22:56:11.448Z,10.82
2019-05-29T22:58:41.797Z,10.20
2019-05-29T23:01:12.400Z,15.72
2019-05-29T23:03:42.762Z,18.73
2019-05-29T23:06:13.009Z,13.75
2019-05-29T23:08:43.328Z,12.95
2019-05-29T23:11:13.651Z,13.15
2019-05-29T23:13:44.588Z,12.47
2019-05-29T23:16:14.757Z,14.53
2019-05-29T23:18:45.018Z,9.78
2019-05-29T23:21:15.449Z,10.00
2019-05-29T23:23:46.032Z,7.70
2019-05-29T23:26:16.333Z,10.80
2019-05-29T23:28:46.879Z,17.37
2019-05-29T23:31:17.105Z,11.75
2019-05-29T23:33:47.326Z,10.00
2019-05-29T23:36:18.581Z,18.35
2019-05-29T23:38:48.847Z,11.97
2019-05-29T23:41:19.201Z,15.80
2019-05-29T23:43:49.478Z,14.35
2019-05-29T23:46:19.752Z,14.87
2019-05-29T23:48:50.070Z,7.97
2019-05-29T23:51:20.390Z,10.60
2019-05-29T23:53:50.681Z,10.68
2019-05-29T23:56:21.096Z,14.30
2019-05-29T23:58:51.361Z,8.73
